createdAt,value
2022-12-20T00:01:35.014Z,99657.13
2022-12-20T00:04:08.099Z,99654.66
2022-12-20T00:06:36.932Z,99657.22
2022-12-20T00:09:07.963Z,99650.38
2022-12-20T00:11:36.341Z,99648.59
2022-12-20T00:14:03.486Z,99646.88
2022-12-20T00:16:30.620Z,99644.28
2022-12-20T00:19:02.572Z,99640.81
2022-12-20T00:21:30.940Z,99645.97
2022-12-20T00:23:58.552Z,99635.50
2022-12-20T00:26:29.592Z,99629.41
2022-12-20T00:28:57.266Z,99635.41
2022-12-20T00:31:26.449Z,99638.03
2022-12-20T00:33:56.400Z,99638.94
2022-12-20T00:36:26.800Z,99638.13
2022-12-20T00:38:56.600Z,99624.25
2022-12-20T00:41:27.854Z,99611.16
2022-12-20T00:43:55.696Z,99613.66
2022-12-20T00:46:23.601Z,99624.09
2022-12-20T00:48:52.180Z,99627.59
2022-12-20T00:51:24.760Z,99611.09
2022-12-20T00:53:53.012Z,99611.84
2022-12-20T00:56:20.096Z,99617.09
2022-12-20T00:58:47.399Z,99633.50
2022-12-20T01:01:26.371Z,99627.41
2022-12-20T01:03:55.077Z,99630.13
2022-12-20T01:06:24.246Z,99625.84
2022-12-20T01:08:54.319Z,99629.94
2022-12-20T01:11:29.415Z,99620.41
2022-12-20T01:14:00.925Z,99612.75
2022-12-20T01:16:38.169Z,99609.22
2022-12-20T01:19:07.683Z,99614.44
2022-12-20T01:21:35.820Z,99605.72
2022-12-20T01:24:03.052Z,99601.28
2022-12-20T01:26:30.429Z,99602.97
2022-12-20T01:29:00.354Z,99606.28
2022-12-20T01:31:29.811Z,99606.25
2022-12-20T01:33:57.509Z,99606.31
2022-12-20T01:36:30.067Z,99600.28
2022-12-20T01:39:03.473Z,99589.03
2022-12-20T01:41:33.411Z,99588.13
2022-12-20T01:44:03.251Z,99591.50
2022-12-20T01:46:36.573Z,99588.13
2022-12-20T01:49:24.491Z,99593.38
2022-12-20T01:52:13.663Z,99573.53
2022-12-20T01:54:45.377Z,99577.69
2022-12-20T01:57:25.034Z,99572.63
2022-12-20T01:59:55.959Z,99582.00
2022-12-20T02:02:23.876Z,99595.78
2022-12-20T02:04:51.103Z,99604.53
2022-12-20T02:07:26.045Z,99595.00
2022-12-20T02:09:57.241Z,99601.06
2022-12-20T02:12:29.949Z,99586.44
2022-12-20T02:15:21.977Z,99577.78
2022-12-20T02:18:42.728Z,99577.03
2022-12-20T02:21:30.267Z,99568.44
2022-12-20T02:24:35.615Z,99551.19
2022-12-20T02:27:32.184Z,99557.13
2022-12-20T02:30:14.336Z,99550.91
2022-12-20T02:33:04.214Z,99569.84
2022-12-20T02:35:35.545Z,99567.28
2022-12-20T02:38:24.329Z,99575.22
2022-12-20T02:41:06.571Z,99566.53
2022-12-20T02:43:58.218Z,99565.56
2022-12-20T02:46:27.659Z,99561.88
2022-12-20T02:49:01.961Z,99560.06
2022-12-20T02:51:32.657Z,99574.03
2022-12-20T02:54:00.797Z,99580.09
2022-12-20T02:57:02.517Z,99565.28
2022-12-20T02:59:44.187Z,99556.41
2022-12-20T03:02:12.753Z,99546.97
2022-12-20T03:04:42.385Z,99537.75
2022-12-20T03:07:14.855Z,99535.16
2022-12-20T03:09:45.141Z,99552.50
2022-12-20T03:12:16.056Z,99549.09
2022-12-20T03:14:43.306Z,99551.56
2022-12-20T03:17:11.135Z,99561.91
2022-12-20T03:19:38.912Z,99554.28
2022-12-20T03:22:06.063Z,99542.81
2022-12-20T03:24:33.405Z,99543.69
2022-12-20T03:27:00.388Z,99547.22
2022-12-20T03:29:28.002Z,99545.44
2022-12-20T03:31:54.838Z,99545.44
2022-12-20T03:34:21.903Z,99531.53
2022-12-20T03:36:50.058Z,99539.47
2022-12-20T03:39:17.262Z,99535.25
2022-12-20T03:41:44.209Z,99546.41
2022-12-20T03:44:11.383Z,99539.38
2022-12-20T03:46:38.297Z,99560.09
2022-12-20T03:49:05.565Z,99541.91
2022-12-20T03:51:32.534Z,99541.09
2022-12-20T03:53:59.628Z,99538.56
2022-12-20T03:56:26.547Z,99541.16
2022-12-20T03:58:53.765Z,99544.88
2022-12-20T04:01:28.144Z,99543.19
2022-12-20T04:03:56.862Z,99549.34
2022-12-20T04:06:24.298Z,99547.72
2022-12-20T04:08:51.421Z,99546.69
2022-12-20T04:11:18.314Z,99545.06
2022-12-20T04:13:48.606Z,99540.59
2022-12-20T04:16:18.929Z,99535.34
2022-12-20T04:18:46.270Z,99551.72
2022-12-20T04:21:14.505Z,99564.00
2022-12-20T04:23:43.951Z,99549.34
2022-12-20T04:26:11.534Z,99550.19
2022-12-20T04:28:39.075Z,99551.91
2022-12-20T04:31:07.668Z,99536.34
2022-12-20T04:33:34.960Z,99522.66
2022-12-20T04:36:02.049Z,99533.13
2022-12-20T04:38:29.539Z,99531.44
2022-12-20T04:40:57.187Z,99540.03
2022-12-20T04:43:25.867Z,99542.66
2022-12-20T04:45:58.373Z,99569.47
2022-12-20T04:51:15.760Z,99555.56
2022-12-20T04:53:49.942Z,99548.44
2022-12-20T04:56:28.749Z,99543.94
2022-12-20T04:58:58.872Z,99545.72
2022-12-20T05:01:26.452Z,99548.44
2022-12-20T05:03:54.858Z,99544.94
2022-12-20T05:06:21.864Z,99551.00
2022-12-20T05:08:49.400Z,99551.94
2022-12-20T05:11:16.618Z,99545.91
2022-12-20T05:13:44.080Z,99543.41
2022-12-20T05:16:11.207Z,99543.47
2022-12-20T05:18:43.044Z,99559.06
2022-12-20T05:21:32.070Z,99551.25
2022-12-20T05:24:17.644Z,99539.19
2022-12-20T05:26:44.433Z,99532.31
2022-12-20T05:29:11.634Z,99520.28
2022-12-20T05:31:38.711Z,99506.41
2022-12-20T05:34:05.904Z,99501.22
2022-12-20T05:36:32.797Z,99503.06
2022-12-20T05:39:04.354Z,99502.16
2022-12-20T05:41:32.567Z,99497.81
2022-12-20T05:43:59.753Z,99489.16
2022-12-20T05:46:26.785Z,99486.59
2022-12-20T05:48:54.216Z,99487.44
2022-12-20T05:51:21.309Z,99471.91
2022-12-20T05:53:48.490Z,99480.66
2022-12-20T05:56:15.495Z,99486.75
2022-12-20T05:58:42.715Z,99514.50
2022-12-20T06:01:10.521Z,99519.72
2022-12-20T06:03:40.567Z,99529.19
2022-12-20T06:06:14.089Z,99543.13
2022-12-20T06:08:42.968Z,99555.94
2022-12-20T06:11:09.840Z,99555.09
2022-12-20T06:13:37.171Z,99546.25
2022-12-20T06:16:04.556Z,99535.91
2022-12-20T06:18:31.678Z,99525.44
2022-12-20T06:20:58.740Z,99522.00
2022-12-20T06:23:25.972Z,99508.91
2022-12-20T06:25:52.934Z,99509.88
2022-12-20T06:28:22.332Z,99496.66
2022-12-20T06:30:58.154Z,99500.03
2022-12-20T06:33:25.820Z,99491.56
2022-12-20T06:35:53.067Z,99503.84
2022-12-20T06:38:20.303Z,99496.91
2022-12-20T06:40:47.276Z,99482.22
2022-12-20T06:43:14.826Z,99452.00
2022-12-20T06:45:42.551Z,99458.16
2022-12-20T06:48:10.562Z,99478.88
2022-12-20T06:50:41.270Z,99485.00
2022-12-20T06:53:08.745Z,99482.34
2022-12-20T06:55:35.963Z,99486.75
2022-12-20T06:58:04.213Z,99531.88
2022-12-20T07:00:32.091Z,99536.22
2022-12-20T07:02:59.724Z,99524.09
2022-12-20T07:05:27.651Z,99527.50
2022-12-20T07:07:55.000Z,99539.59
2022-12-20T07:10:22.035Z,99531.00
2022-12-20T07:12:49.226Z,99505.91
2022-12-20T07:15:17.078Z,99484.31
2022-12-20T07:17:44.846Z,99447.13
2022-12-20T07:20:14.025Z,99394.31
2022-12-20T07:22:41.932Z,99377.88
2022-12-20T07:25:10.474Z,99320.75
2022-12-20T07:27:37.706Z,99395.22
2022-12-20T07:30:05.620Z,99447.06
2022-12-20T07:32:33.191Z,99444.50
2022-12-20T07:35:01.467Z,99470.53
2022-12-20T07:37:30.155Z,99467.81
2022-12-20T07:39:57.204Z,99479.88
2022-12-20T07:42:31.808Z,99526.81
2022-12-20T07:45:02.614Z,99528.63
2022-12-20T07:47:30.204Z,99502.69
2022-12-20T07:49:57.111Z,99497.44
2022-12-20T07:52:28.951Z,99511.19
2022-12-20T07:55:01.737Z,99515.66
2022-12-20T07:57:42.919Z,99509.66
2022-12-20T08:00:11.947Z,99479.16
2022-12-20T08:02:55.605Z,99480.97
2022-12-20T08:05:24.471Z,99475.66
2022-12-20T08:07:59.229Z,99468.72
2022-12-20T08:10:27.666Z,99470.56
2022-12-20T08:12:55.755Z,99474.09
2022-12-20T08:15:24.032Z,99493.25
2022-12-20T08:17:51.457Z,99487.97
2022-12-20T08:20:18.541Z,99491.50
2022-12-20T08:22:45.880Z,99492.44
2022-12-20T08:25:13.194Z,99477.63
2022-12-20T08:27:40.420Z,99468.88
2022-12-20T08:30:10.484Z,99468.94
2022-12-20T08:32:38.447Z,99471.59
2022-12-20T08:35:06.935Z,99462.94
2022-12-20T08:37:35.078Z,99436.97
2022-12-20T08:40:02.070Z,99425.59
2022-12-20T08:42:30.072Z,99446.47
2022-12-20T08:44:56.894Z,99472.53
2022-12-20T08:47:24.126Z,99462.06
2022-12-20T08:49:51.183Z,99466.53
2022-12-20T08:52:18.349Z,99454.47
2022-12-20T08:54:45.760Z,99433.69
2022-12-20T08:57:13.815Z,99444.16
2022-12-20T08:59:40.683Z,99438.03
2022-12-20T09:02:08.246Z,99434.69
2022-12-20T09:04:35.283Z,99450.97
2022-12-20T09:07:02.843Z,99441.47
2022-12-20T09:09:31.860Z,99458.88
2022-12-20T09:11:59.099Z,99450.28
2022-12-20T09:14:25.979Z,99466.78
2022-12-20T09:16:53.192Z,99471.13
2022-12-20T09:19:19.959Z,99475.41
2022-12-20T09:21:47.176Z,99473.69
2022-12-20T09:24:14.265Z,99464.06
2022-12-20T09:26:41.418Z,99448.53
2022-12-20T09:29:08.537Z,99458.06
2022-12-20T09:31:37.086Z,99465.03
2022-12-20T09:34:04.138Z,99474.59
2022-12-20T09:36:32.193Z,99464.19
2022-12-20T09:38:59.191Z,99465.09
2022-12-20T09:41:40.966Z,99452.09
2022-12-20T09:44:27.316Z,99447.63
2022-12-20T09:47:10.478Z,99435.63
2022-12-20T09:49:44.184Z,99431.31
2022-12-20T09:52:34.991Z,99426.16
2022-12-20T09:55:24.231Z,99427.06
2022-12-20T09:58:22.331Z,99418.38
2022-12-20T10:00:54.225Z,99428.81
2022-12-20T10:03:36.534Z,99431.34
2022-12-20T10:07:12.175Z,99429.66
2022-12-20T10:10:11.167Z,99427.06
2022-12-20T10:13:15.644Z,99427.09
2022-12-20T10:16:25.416Z,99434.88
2022-12-20T10:19:24.075Z,99440.97
2022-12-20T10:22:07.831Z,99430.59
2022-12-20T10:24:36.957Z,99434.03
2022-12-20T10:27:19.501Z,99424.53
2022-12-20T10:29:49.452Z,99427.84
2022-12-20T10:32:23.717Z,99412.31
2022-12-20T10:35:15.312Z,99387.19
2022-12-20T10:38:08.478Z,99397.50
2022-12-20T10:41:18.694Z,99392.34
2022-12-20T10:43:28.602Z,99378.50
2022-12-20T10:46:00.489Z,99375.94
2022-12-20T10:48:35.085Z,99374.19
2022-12-20T10:51:15.831Z,99367.13
2022-12-20T10:54:03.481Z,99365.47
2022-12-20T10:56:35.073Z,99390.66
2022-12-20T10:59:18.129Z,99398.50
2022-12-20T11:01:48.270Z,99389.84
2022-12-20T11:04:26.626Z,99370.78
2022-12-20T11:06:54.444Z,99379.47
2022-12-20T11:09:30.231Z,99368.19
2022-12-20T11:12:16.651Z,99370.78
2022-12-20T11:14:46.678Z,99369.06
2022-12-20T11:17:43.684Z,99380.34
2022-12-20T11:20:50.010Z,99389.88
2022-12-20T11:23:39.099Z,99397.69
2022-12-20T11:26:46.232Z,99389.88
2022-12-20T11:29:38.040Z,99384.66
2022-12-20T11:32:22.406Z,99372.50
2022-12-20T11:35:24.647Z,99359.50
2022-12-20T11:38:22.063Z,99348.22
2022-12-20T11:41:13.022Z,99346.50
2022-12-20T11:44:24.484Z,99363.00
2022-12-20T11:46:54.600Z,99362.09
2022-12-20T11:49:49.600Z,99343.03
2022-12-20T11:52:53.303Z,99336.97
2022-12-20T11:55:36.683Z,99328.28
2022-12-20T11:58:20.025Z,99309.19
2022-12-20T12:01:07.302Z,99295.31
2022-12-20T12:03:39.985Z,99280.56
2022-12-20T12:06:23.485Z,99294.41
2022-12-20T12:09:14.241Z,99297.03
2022-12-20T12:12:07.355Z,99288.34
2022-12-20T12:15:00.835Z,99274.47
2022-12-20T12:18:11.351Z,99271.00
2022-12-20T12:20:56.838Z,99277.94
2022-12-20T12:24:05.757Z,99274.47
2022-12-20T12:26:41.644Z,99273.56
2022-12-20T12:29:08.752Z,99276.19
2022-12-20T12:32:14.964Z,99276.19
2022-12-20T12:35:10.565Z,99277.94
2022-12-20T12:38:03.909Z,99265.75
2022-12-20T12:41:28.142Z,99251.88
2022-12-20T12:44:41.145Z,99253.63
2022-12-20T12:47:23.330Z,99244.06
2022-12-20T12:49:54.499Z,99246.69
2022-12-20T12:52:40.380Z,99231.06
2022-12-20T12:55:45.525Z,99242.34
2022-12-20T12:58:32.165Z,99247.53
2022-12-20T13:01:10.586Z,99243.19
2022-12-20T13:03:46.028Z,99248.38
2022-12-20T13:06:31.166Z,99254.47
2022-12-20T13:09:04.247Z,99252.72
2022-12-20T13:11:46.162Z,99244.03
2022-12-20T13:14:24.078Z,99250.19
2022-12-20T13:17:12.073Z,99246.72
2022-12-20T13:19:54.829Z,99256.22
2022-12-20T13:22:25.453Z,99248.44
2022-12-20T13:24:53.779Z,99228.50
2022-12-20T13:27:27.239Z,99231.09
2022-12-20T13:30:17.243Z,99233.66
2022-12-20T13:32:47.273Z,99229.31
2022-12-20T13:35:57.310Z,99237.16
2022-12-20T13:38:46.340Z,99224.13
2022-12-20T13:41:46.479Z,99204.16
2022-12-20T13:44:16.363Z,99205.91
2022-12-20T13:46:49.726Z,99220.63
2022-12-20T13:49:44.381Z,99223.25
2022-12-20T13:52:11.528Z,99224.09
2022-12-20T13:54:49.032Z,99223.25
2022-12-20T13:57:28.537Z,99231.06
2022-12-20T14:00:05.737Z,99231.91
2022-12-20T14:02:41.941Z,99232.81
2022-12-20T14:05:18.582Z,99241.47
2022-12-20T14:07:55.860Z,99235.41
2022-12-20T14:10:29.487Z,99229.34
2022-12-20T14:12:57.427Z,99229.34
2022-12-20T14:15:30.546Z,99232.84
2022-12-20T14:18:06.387Z,99233.69
2022-12-20T14:20:38.238Z,99225.91
2022-12-20T14:23:19.876Z,99223.28
2022-12-20T14:25:54.540Z,99217.25
2022-12-20T14:28:39.748Z,99213.75
2022-12-20T14:31:33.767Z,99205.97
2022-12-20T14:34:18.929Z,99205.97
2022-12-20T14:36:50.726Z,99202.47
2022-12-20T14:39:36.191Z,99193.81
2022-12-20T14:42:09.830Z,99192.97
2022-12-20T14:44:37.190Z,99193.81
2022-12-20T14:47:28.385Z,99199.00
2022-12-20T14:50:03.026Z,99192.06
2022-12-20T14:52:33.202Z,99185.13
2022-12-20T14:55:13.749Z,99168.66
2022-12-20T14:57:52.155Z,99170.41
2022-12-20T15:00:19.291Z,99161.69
2022-12-20T15:02:50.099Z,99166.06
2022-12-20T15:05:36.333Z,99162.56
2022-12-20T15:08:17.307Z,99169.50
2022-12-20T15:11:01.448Z,99165.16
2022-12-20T15:13:38.905Z,99154.75
2022-12-20T15:16:18.627Z,99142.63
2022-12-20T15:19:03.839Z,99133.06
2022-12-20T15:21:35.544Z,99150.41
2022-12-20T15:24:09.706Z,99155.59
2022-12-20T15:26:37.574Z,99159.06
2022-12-20T15:29:06.078Z,99152.16
2022-12-20T15:31:37.190Z,99155.63
2022-12-20T15:34:34.663Z,99157.38
2022-12-20T15:37:03.364Z,99166.06
2022-12-20T15:39:32.038Z,99165.22
2022-12-20T15:42:05.310Z,99164.34
2022-12-20T15:44:33.858Z,99161.72
2022-12-20T15:47:01.254Z,99179.94
2022-12-20T15:49:32.149Z,99168.66
2022-12-20T15:51:59.768Z,99176.47
2022-12-20T15:54:35.701Z,99176.47
2022-12-20T15:57:09.918Z,99185.97
2022-12-20T16:02:28.443Z,99166.06
2022-12-20T16:04:56.095Z,99166.06
2022-12-20T16:07:24.165Z,99154.78
2022-12-20T16:09:51.776Z,99161.69
2022-12-20T16:12:36.071Z,99157.34
2022-12-20T16:15:03.564Z,99159.09
2022-12-20T16:17:30.787Z,99158.25
2022-12-20T16:19:57.954Z,99153.91
2022-12-20T16:22:26.534Z,99162.56
2022-12-20T16:24:53.748Z,99160.81
2022-12-20T16:27:21.676Z,99170.31
2022-12-20T16:29:48.703Z,99174.66
2022-12-20T16:32:19.589Z,99171.22
2022-12-20T16:34:48.695Z,99155.66
2022-12-20T16:37:16.389Z,99139.22
2022-12-20T16:39:43.831Z,99135.72
2022-12-20T16:42:17.360Z,99133.13
2022-12-20T16:44:46.105Z,99138.28
2022-12-20T16:47:14.932Z,99127.88
2022-12-20T16:49:51.138Z,99137.38
2022-12-20T16:52:22.162Z,99137.38
2022-12-20T16:54:51.539Z,99132.19
2022-12-20T16:57:19.751Z,99129.56
2022-12-20T16:59:46.747Z,99134.78
2022-12-20T17:02:30.546Z,99139.13
2022-12-20T17:04:59.644Z,99133.88
2022-12-20T17:07:27.005Z,99142.53
2022-12-20T17:09:54.231Z,99142.53
2022-12-20T17:12:23.316Z,99150.34
2022-12-20T17:14:50.568Z,99146.03
2022-12-20T17:17:17.973Z,99138.22
2022-12-20T17:19:44.956Z,99133.91
2022-12-20T17:22:25.675Z,99128.72
2022-12-20T17:24:52.831Z,99126.97
2022-12-20T17:27:20.258Z,99127.81
2022-12-20T17:29:47.306Z,99140.84
2022-12-20T17:32:22.860Z,99125.22
2022-12-20T17:34:50.934Z,99128.72
2022-12-20T17:37:18.550Z,99139.97
2022-12-20T17:39:45.743Z,99142.56
2022-12-20T17:42:14.179Z,99143.44
2022-12-20T17:44:41.698Z,99139.97
2022-12-20T17:47:09.089Z,99130.47
2022-12-20T17:49:36.085Z,99114.00
2022-12-20T17:52:04.067Z,99108.84
2022-12-20T17:54:39.074Z,99111.44
2022-12-20T17:57:14.749Z,99114.03
2022-12-20T17:59:42.540Z,99129.63
2022-12-20T18:02:28.276Z,99117.50
2022-12-20T18:04:55.547Z,99114.03
2022-12-20T18:07:22.716Z,99104.50
2022-12-20T18:09:49.943Z,99103.59
2022-12-20T18:12:18.158Z,99101.91
2022-12-20T18:14:45.331Z,99081.97
2022-12-20T18:17:12.916Z,99088.03
2022-12-20T18:19:41.127Z,99093.28
2022-12-20T18:22:08.464Z,99098.44
2022-12-20T18:24:35.478Z,99103.63
2022-12-20T18:27:02.670Z,99085.44
2022-12-20T18:29:29.839Z,99078.47
2022-12-20T18:31:57.458Z,99075.03
2022-12-20T18:34:24.620Z,99093.22
2022-12-20T18:36:51.975Z,99087.13
2022-12-20T18:39:19.610Z,99069.78
2022-12-20T18:41:48.479Z,99067.16
2022-12-20T18:44:15.631Z,99069.75
2022-12-20T18:46:42.856Z,99068.03
2022-12-20T18:49:10.042Z,99058.50
2022-12-20T18:51:37.506Z,99071.53
2022-12-20T18:54:08.478Z,99072.41
2022-12-20T18:56:38.834Z,99060.25
2022-12-20T18:59:11.993Z,99073.28
2022-12-20T19:01:41.987Z,99093.19
2022-12-20T19:04:10.163Z,99077.56
2022-12-20T19:06:37.929Z,99064.59
2022-12-20T19:09:15.676Z,99053.34
2022-12-20T19:11:43.608Z,99063.78
2022-12-20T19:14:12.525Z,99081.09
2022-12-20T19:16:40.170Z,99087.13
2022-12-20T19:19:08.927Z,99104.50
2022-12-20T19:21:40.397Z,99085.38
2022-12-20T19:24:08.100Z,99084.53
2022-12-20T19:26:37.840Z,99086.28
2022-12-20T19:29:07.532Z,99081.03
2022-12-20T19:31:38.238Z,99084.53
2022-12-20T19:34:12.565Z,99068.03
2022-12-20T19:36:45.862Z,99064.63
2022-12-20T19:39:20.584Z,99068.09
2022-12-20T19:42:15.531Z,99061.16
2022-12-20T19:44:35.828Z,99045.56
2022-12-20T19:47:06.326Z,99044.72
2022-12-20T19:49:35.652Z,99047.31
2022-12-20T19:52:03.334Z,99033.44
2022-12-20T19:54:30.546Z,99027.44
2022-12-20T19:56:58.675Z,99037.78
2022-12-20T19:59:25.795Z,99036.91
2022-12-20T20:01:53.199Z,99041.28
2022-12-20T20:04:20.303Z,99043.00
2022-12-20T20:06:47.623Z,99027.41
2022-12-20T20:09:14.609Z,99004.88
2022-12-20T20:11:42.026Z,99015.28
2022-12-20T20:14:09.590Z,98999.66
2022-12-20T20:16:38.171Z,99002.22
2022-12-20T20:19:05.789Z,99006.53
2022-12-20T20:21:36.587Z,99011.72
2022-12-20T20:24:04.635Z,99016.03
2022-12-20T20:26:32.343Z,98995.22
2022-12-20T20:29:02.055Z,98964.88
2022-12-20T20:31:30.403Z,98956.19
2022-12-20T20:33:58.472Z,98997.81
2022-12-20T20:36:25.803Z,99037.69
2022-12-20T20:38:52.915Z,99016.03
2022-12-20T20:41:20.846Z,99042.91
2022-12-20T20:43:48.329Z,99011.69
2022-12-20T20:46:17.741Z,99005.59
2022-12-20T20:48:45.265Z,99006.47
2022-12-20T20:51:13.056Z,99008.22
2022-12-20T20:53:40.427Z,99008.22
2022-12-20T20:56:09.060Z,99009.94
2022-12-20T20:58:37.113Z,99022.06
2022-12-20T21:01:09.022Z,98999.56
2022-12-20T21:03:37.050Z,99019.47
2022-12-20T21:06:39.207Z,99021.22
2022-12-20T21:08:54.372Z,99009.06
2022-12-20T21:11:22.104Z,99022.06
2022-12-20T21:13:49.299Z,99011.66
2022-12-20T21:16:21.151Z,99015.16
2022-12-20T21:18:54.214Z,99027.28
2022-12-20T21:21:22.976Z,99007.31
2022-12-20T21:23:50.512Z,99010.81
2022-12-20T21:26:20.354Z,99006.53
2022-12-20T21:28:48.375Z,99014.34
2022-12-20T21:31:19.420Z,98989.22
2022-12-20T21:33:47.064Z,98961.47
2022-12-20T21:36:19.656Z,98975.34
2022-12-20T21:38:56.697Z,98972.72
2022-12-20T21:41:28.158Z,98986.63
2022-12-20T21:43:59.961Z,98990.06
2022-12-20T21:46:30.158Z,99003.94
2022-12-20T21:48:58.754Z,99027.34
2022-12-20T21:51:28.361Z,99011.75
2022-12-20T21:54:01.241Z,98992.69
2022-12-20T21:56:33.961Z,98978.84
2022-12-20T21:59:02.531Z,98976.22
2022-12-20T22:01:31.205Z,98972.78
2022-12-20T22:04:02.356Z,98961.47
2022-12-20T22:06:31.616Z,98955.44
2022-12-20T22:09:00.538Z,98957.16
2022-12-20T22:11:28.549Z,98947.63
2022-12-20T22:13:56.860Z,98923.38
2022-12-20T22:16:29.268Z,98911.28
2022-12-20T22:18:58.597Z,98895.69
2022-12-20T22:21:29.405Z,98896.59
2022-12-20T22:23:58.153Z,98884.44
2022-12-20T22:26:29.827Z,98886.22
2022-12-20T22:29:05.025Z,98881.91
2022-12-20T22:31:33.560Z,98897.50
2022-12-20T22:34:02.098Z,98914.81
2022-12-20T22:36:29.450Z,98916.53
2022-12-20T22:38:57.682Z,98920.00
2022-12-20T22:41:32.560Z,98905.31
2022-12-20T22:44:00.135Z,98900.09
2022-12-20T22:46:32.271Z,98909.59
2022-12-20T22:48:59.881Z,98925.19
2022-12-20T22:51:31.097Z,98929.50
2022-12-20T22:54:00.059Z,98935.59
2022-12-20T22:56:27.758Z,98938.19
2022-12-20T22:58:54.776Z,98936.44
2022-12-20T23:01:22.215Z,98934.69
2022-12-20T23:03:49.697Z,98917.38
2022-12-20T23:06:20.464Z,98907.84
2022-12-20T23:08:48.652Z,98894.00
2022-12-20T23:11:44.056Z,98892.25
2022-12-20T23:14:36.524Z,98905.22
2022-12-20T23:17:06.156Z,98904.34
2022-12-20T23:19:53.225Z,98887.88
2022-12-20T23:22:39.563Z,98891.34
2022-12-20T23:25:16.180Z,98889.59
2022-12-20T23:27:46.784Z,98899.13
2022-12-20T23:30:23.417Z,98902.56
2022-12-20T23:32:51.554Z,98867.91
2022-12-20T23:35:20.987Z,98865.31
2022-12-20T23:37:48.661Z,98879.25
2022-12-20T23:40:17.311Z,98880.09
2022-12-20T23:42:45.165Z,98897.44
2022-12-20T23:45:12.377Z,98905.25
2022-12-20T23:47:39.623Z,98917.38
2022-12-20T23:50:07.494Z,98926.03
2022-12-20T23:52:34.673Z,98906.09
2022-12-20T23:55:01.681Z,98888.75
2022-12-20T23:57:31.104Z,98881.00
2022-12-20T23:59:58.031Z,98878.41
